Time;durP1;ratioP1;P1;durP2;ratioP2;P2;SDS_P1;SDS_P2;PMS_P1;PMS_P2;Temp;Humidity;BMP_temperature;BMP_pressure;BME280_temperature;BME280_humidity;BME280_pressure;Samples;Min_cycle;Max_cycle;Signal;HPM_P1;HPM_P2
2021/11/10 00:01:51;;;;;;;2.63;2.40;;;;;;;;;;4932901;29;20421;-77
2021/11/10 00:04:19;;;;;;;5.05;4.45;;;;;;;;;;4933948;29;20080;-77
2021/11/10 00:06:44;;;;;;;4.35;3.95;;;;;;;;;;4933568;29;20042;-77
2021/11/10 00:09:09;;;;;;;3.92;3.65;;;;;;;;;;4933696;29;20044;-77
2021/11/10 00:11:35;;;;;;;3.28;3.15;;;;;;;;;;4932686;29;20046;-76
2021/11/10 00:14:01;;;;;;;5.18;4.68;;;;;;;;;;4933855;29;20574;-77
2021/11/10 00:16:26;;;;;;;3.88;3.67;;;;;;;;;;4933733;29;20047;-78
2021/11/10 00:18:55;;;;;;;3.15;2.47;;;;;;;;;;4933839;29;20414;-77
2021/11/10 00:21:22;;;;;;;5.25;3.38;;;;;;;;;;4916526;29;20082;-78
2021/11/10 00:23:47;;;;;;;3.00;2.65;;;;;;;;;;4934098;29;20417;-76
2021/11/10 00:26:13;;;;;;;7.55;4.03;;;;;;;;;;4933776;29;20053;-75
2021/11/10 00:28:39;;;;;;;4.07;3.75;;;;;;;;;;4933665;29;20051;-77
2021/11/10 00:31:04;;;;;;;3.30;3.05;;;;;;;;;;4934019;29;20130;-77
2021/11/10 00:33:30;;;;;;;4.18;3.88;;;;;;;;;;4933624;29;20526;-77
2021/11/10 00:35:56;;;;;;;4.13;3.90;;;;;;;;;;4933565;29;20040;-76
2021/11/10 00:38:21;;;;;;;4.07;3.60;;;;;;;;;;4933496;29;20051;-78
2021/11/10 00:40:47;;;;;;;4.10;3.63;;;;;;;;;;4933944;29;20044;-76
2021/11/10 00:43:12;;;;;;;3.08;2.88;;;;;;;;;;4933494;29;20421;-77
2021/11/10 00:45:37;;;;;;;3.58;3.38;;;;;;;;;;4933616;29;20070;-76
2021/11/10 00:48:04;;;;;;;6.00;4.15;;;;;;;;;;4933337;29;20071;-77
2021/11/10 00:50:30;;;;;;;4.57;3.30;;;;;;;;;;4933427;29;20047;-76
2021/11/10 00:52:56;;;;;;;3.20;3.00;;;;;;;;;;4933490;29;20095;-77
2021/11/10 00:55:22;;;;;;;4.18;3.90;;;;;;;;;;4933330;29;20048;-78
2021/11/10 00:57:48;;;;;;;3.88;3.60;;;;;;;;;;4935865;29;20200;-76
2021/11/10 01:00:14;;;;;;;5.43;5.05;;;;;;;;;;4936767;29;20436;-77
2021/11/10 01:02:39;;;;;;;3.63;3.33;;;;;;;;;;4936971;29;20043;-76
2021/11/10 01:05:06;;;;;;;5.78;5.32;;;;;;;;;;4936826;29;20469;-76
2021/11/10 01:07:31;;;;;;;3.33;3.10;;;;;;;;;;4936565;29;20054;-77
2021/11/10 01:10:02;;;;;;;4.60;3.20;;;;;;;;;;4936810;29;20047;-77
2021/11/10 01:12:29;;;;;;;3.47;3.28;;;;;;;;;;4936744;29;20035;-77
2021/11/10 01:14:55;;;;;;;3.60;3.30;;;;;;;;;;4936855;29;20048;-77
2021/11/10 01:17:21;;;;;;;3.50;3.30;;;;;;;;;;4936482;29;20501;-78
2021/11/10 01:19:47;;;;;;;3.90;3.47;;;;;;;;;;4936888;29;20046;-77
2021/11/10 01:22:13;;;;;;;3.42;3.22;;;;;;;;;;4936486;29;20055;-75
2021/11/10 01:24:39;;;;;;;3.55;3.35;;;;;;;;;;4919262;29;20501;-76
2021/11/10 01:27:04;;;;;;;3.67;3.30;;;;;;;;;;4936300;29;20095;-77
2021/11/10 01:29:31;;;;;;;2.95;2.85;;;;;;;;;;4936412;29;20086;-78
2021/11/10 01:31:56;;;;;;;3.83;3.53;;;;;;;;;;4919229;29;20039;-77
2021/11/10 01:34:22;;;;;;;3.22;3.03;;;;;;;;;;4936193;29;20050;-76
2021/11/10 01:36:48;;;;;;;4.15;3.95;;;;;;;;;;4936520;29;20043;-77
2021/11/10 01:39:13;;;;;;;3.80;3.60;;;;;;;;;;4936128;29;20051;-76
2021/11/10 01:41:40;;;;;;;2.92;2.80;;;;;;;;;;4936244;29;20484;-76
2021/11/10 01:44:16;;;;;;;3.80;3.60;;;;;;;;;;4936027;29;20532;-77
2021/11/10 01:46:42;;;;;;;4.07;3.78;;;;;;;;;;4934876;29;20098;-77
2021/11/10 01:49:07;;;;;;;3.80;3.47;;;;;;;;;;4935750;29;20060;-77
2021/11/10 01:51:33;;;;;;;4.70;3.25;;;;;;;;;;4935929;29;20035;-77
2021/11/10 01:53:58;;;;;;;4.00;3.80;;;;;;;;;;4935901;29;20044;-78
2021/11/10 01:56:24;;;;;;;3.63;3.35;;;;;;;;;;4936070;29;20043;-77
2021/11/10 01:58:50;;;;;;;4.60;4.30;;;;;;;;;;4935756;29;20055;-78
2021/11/10 02:01:16;;;;;;;3.67;3.47;;;;;;;;;;4935868;29;20036;-77
2021/11/10 02:03:41;;;;;;;3.55;3.25;;;;;;;;;;4935893;29;20050;-77
2021/11/10 02:06:07;;;;;;;4.28;3.55;;;;;;;;;;4935685;29;20043;-78
2021/11/10 02:08:32;;;;;;;4.07;3.17;;;;;;;;;;4935517;29;20056;-76
2021/11/10 02:10:58;;;;;;;3.28;3.00;;;;;;;;;;4935432;29;20413;-77
2021/11/10 02:13:23;;;;;;;3.58;3.33;;;;;;;;;;4935615;29;20051;-77
2021/11/10 02:15:49;;;;;;;3.35;3.13;;;;;;;;;;4935644;29;20521;-76
2021/11/10 02:18:14;;;;;;;4.03;3.20;;;;;;;;;;4935264;29;20106;-77
2021/11/10 02:20:40;;;;;;;3.63;3.33;;;;;;;;;;4934447;29;20132;-76
2021/11/10 02:23:07;;;;;;;3.60;3.40;;;;;;;;;;4934210;29;20469;-77
2021/11/10 02:25:33;;;;;;;3.88;3.58;;;;;;;;;;4935364;29;20044;-77
2021/11/10 02:27:59;;;;;;;3.63;3.30;;;;;;;;;;4935143;29;20066;-76
2021/11/10 02:30:26;;;;;;;3.45;3.25;;;;;;;;;;4935244;29;20509;-77
2021/11/10 02:32:58;;;;;;;3.30;3.08;;;;;;;;;;4935217;29;20081;-77
2021/11/10 02:35:26;;;;;;;4.05;2.85;;;;;;;;;;4935142;29;20086;-78
2021/11/10 02:37:59;;;;;;;3.70;3.33;;;;;;;;;;4935112;29;20058;-77
2021/11/10 02:40:26;;;;;;;3.80;3.53;;;;;;;;;;4935205;29;20115;-76
2021/11/10 02:42:53;;;;;;;3.80;3.50;;;;;;;;;;4934795;29;20050;-77
2021/11/10 02:45:19;;;;;;;2.85;2.75;;;;;;;;;;4935118;29;20092;-76
2021/11/10 02:47:44;;;;;;;3.15;2.85;;;;;;;;;;4939944;28;20051;-78
2021/11/10 02:50:10;;;;;;;4.07;3.78;;;;;;;;;;4954465;28;20128;-78
2021/11/10 02:52:37;;;;;;;3.20;2.83;;;;;;;;;;4952847;29;20075;-76
2021/11/10 02:55:04;;;;;;;3.60;3.38;;;;;;;;;;4969270;28;20471;-77
2021/11/10 02:57:30;;;;;;;3.10;2.90;;;;;;;;;;4972908;28;20046;-77
2021/11/10 02:59:56;;;;;;;3.33;3.00;;;;;;;;;;4969891;28;20121;-77
2021/11/10 03:02:30;;;;;;;3.22;3.03;;;;;;;;;;4971409;28;20054;-77
2021/11/10 03:04:56;;;;;;;3.72;3.35;;;;;;;;;;4972460;28;20047;-78
2021/11/10 03:07:22;;;;;;;4.25;2.92;;;;;;;;;;4954452;28;20046;-78
2021/11/10 03:09:48;;;;;;;3.47;3.28;;;;;;;;;;4952768;29;20047;-78
2021/11/10 03:12:15;;;;;;;3.20;3.03;;;;;;;;;;4952630;29;20508;-77
2021/11/10 03:14:43;;;;;;;3.33;2.95;;;;;;;;;;4953541;29;20484;-76
2021/11/10 03:17:12;;;;;;;3.15;2.97;;;;;;;;;;4952963;29;20080;-77
2021/11/10 03:19:38;;;;;;;3.85;3.55;;;;;;;;;;4952474;28;20043;-76
2021/11/10 03:22:06;;;;;;;3.78;3.55;;;;;;;;;;4951569;29;20075;-77
2021/11/10 03:24:32;;;;;;;4.03;3.42;;;;;;;;;;4952850;29;20445;-77
2021/11/10 03:26:57;;;;;;;4.97;3.67;;;;;;;;;;4952895;29;20057;-77
2021/11/10 03:29:23;;;;;;;4.63;4.25;;;;;;;;;;4952304;29;20040;-76
2021/11/10 03:31:49;;;;;;;3.45;3.25;;;;;;;;;;4952796;29;20050;-78
2021/11/10 03:34:15;;;;;;;3.10;2.90;;;;;;;;;;4951821;29;20066;-79
2021/11/10 03:36:41;;;;;;;3.92;3.20;;;;;;;;;;4950399;29;20169;-77
2021/11/10 03:39:12;;;;;;;3.95;3.42;;;;;;;;;;4951513;29;20039;-79
2021/11/10 03:41:38;;;;;;;3.83;3.58;;;;;;;;;;4934512;29;20047;-76
2021/11/10 03:44:05;;;;;;;3.65;3.45;;;;;;;;;;4932320;29;20055;-76
2021/11/10 03:46:32;;;;;;;3.70;3.50;;;;;;;;;;4933033;29;20048;-76
2021/11/10 03:48:58;;;;;;;3.42;3.15;;;;;;;;;;4932496;29;20066;-79
2021/11/10 03:51:24;;;;;;;3.25;3.05;;;;;;;;;;4932754;29;20536;-78
2021/11/10 03:53:49;;;;;;;2.95;2.85;;;;;;;;;;4933335;29;20051;-79
2021/11/10 03:56:15;;;;;;;3.83;3.50;;;;;;;;;;4932363;29;20055;-78
2021/11/10 03:58:40;;;;;;;3.92;3.72;;;;;;;;;;4933917;29;20055;-78
2021/11/10 04:01:07;;;;;;;3.95;3.75;;;;;;;;;;4931116;29;20047;-77
2021/11/10 04:03:34;;;;;;;4.30;3.97;;;;;;;;;;4932914;29;20048;-78
2021/11/10 04:06:00;;;;;;;3.55;3.28;;;;;;;;;;4932148;29;20127;-77
2021/11/10 04:08:26;;;;;;;4.40;4.00;;;;;;;;;;4932965;29;20134;-77
2021/11/10 04:10:51;;;;;;;3.35;3.15;;;;;;;;;;4933432;29;20047;-76
2021/11/10 04:13:17;;;;;;;3.22;3.03;;;;;;;;;;4932345;29;20168;-77
2021/11/10 04:15:43;;;;;;;3.58;3.28;;;;;;;;;;4933060;29;20079;-77
2021/11/10 04:18:08;;;;;;;3.50;3.15;;;;;;;;;;4932874;29;20489;-76
2021/11/10 04:20:34;;;;;;;3.63;3.33;;;;;;;;;;4931206;29;20047;-77
2021/11/10 04:23:00;;;;;;;4.07;3.63;;;;;;;;;;4931466;29;20063;-76
2021/11/10 04:25:25;;;;;;;3.45;3.25;;;;;;;;;;4932082;29;20719;-77
2021/11/10 04:27:52;;;;;;;3.15;2.95;;;;;;;;;;4930425;29;20047;-77
2021/11/10 04:30:18;;;;;;;3.45;3.15;;;;;;;;;;4933333;29;20502;-77
2021/11/10 04:32:44;;;;;;;4.57;4.28;;;;;;;;;;4934312;29;20050;-77
2021/11/10 04:35:11;;;;;;;3.80;3.60;;;;;;;;;;4935138;29;20051;-76
2021/11/10 04:37:37;;;;;;;3.78;3.30;;;;;;;;;;4919034;29;20047;-76
2021/11/10 04:40:04;;;;;;;4.30;4.10;;;;;;;;;;4935523;29;20048;-77
2021/11/10 04:42:30;;;;;;;3.72;3.53;;;;;;;;;;4949844;28;20570;-75
2021/11/10 04:45:02;;;;;;;4.60;4.20;;;;;;;;;;4957040;28;20074;-77
2021/11/10 04:47:27;;;;;;;5.88;3.88;;;;;;;;;;4973447;28;20049;-76
2021/11/10 04:49:53;;;;;;;3.88;3.67;;;;;;;;;;4972271;28;20042;-77
2021/11/10 04:52:19;;;;;;;4.28;3.63;;;;;;;;;;4974818;28;20065;-76
2021/11/10 04:54:46;;;;;;;4.40;4.13;;;;;;;;;;4973920;28;20129;-76
2021/11/10 04:57:11;;;;;;;3.88;3.67;;;;;;;;;;4974762;28;20543;-77
2021/11/10 04:59:37;;;;;;;3.88;3.58;;;;;;;;;;4973005;28;20045;-76
2021/11/10 05:04:40;;;;;;;3.75;3.45;;;;;;;;;;4974486;28;20496;-78
2021/11/10 05:07:07;;;;;;;3.92;3.65;;;;;;;;;;4971977;28;20043;-77
2021/11/10 05:09:33;;;;;;;4.05;3.83;;;;;;;;;;4973564;28;20043;-75
2021/11/10 05:11:58;;;;;;;3.88;3.58;;;;;;;;;;4972300;28;20058;-77
2021/11/10 05:14:25;;;;;;;3.78;3.58;;;;;;;;;;4964643;28;20039;-77
2021/11/10 05:16:51;;;;;;;3.67;3.42;;;;;;;;;;4962680;28;20461;-77
2021/11/10 05:19:18;;;;;;;4.93;4.55;;;;;;;;;;4955073;29;20069;-77
2021/11/10 05:21:43;;;;;;;4.28;3.97;;;;;;;;;;4954331;29;20130;-75
2021/11/10 05:24:09;;;;;;;3.97;3.67;;;;;;;;;;4954707;29;20146;-76
2021/11/10 05:26:35;;;;;;;5.13;3.70;;;;;;;;;;4953969;29;20398;-75
2021/11/10 05:29:01;;;;;;;3.47;3.28;;;;;;;;;;4954936;29;20047;-75
2021/11/10 05:31:26;;;;;;;4.28;3.72;;;;;;;;;;4954243;29;20087;-76
2021/11/10 05:33:52;;;;;;;4.07;3.78;;;;;;;;;;4952853;29;20046;-80
2021/11/10 05:36:18;;;;;;;3.33;3.13;;;;;;;;;;4955324;29;20043;-77
2021/11/10 05:38:43;;;;;;;4.85;4.45;;;;;;;;;;4954131;29;20055;-75
2021/11/10 05:41:09;;;;;;;4.72;4.32;;;;;;;;;;4954209;29;20039;-75
2021/11/10 05:43:35;;;;;;;3.83;3.45;;;;;;;;;;4968993;28;20054;-77
2021/11/10 05:46:01;;;;;;;3.70;3.40;;;;;;;;;;4972614;28;20047;-77
2021/11/10 05:48:26;;;;;;;4.88;3.90;;;;;;;;;;4973481;28;20070;-77
2021/11/10 05:50:52;;;;;;;3.75;3.17;;;;;;;;;;4973022;28;20412;-75
2021/11/10 05:53:18;;;;;;;3.83;3.35;;;;;;;;;;4973083;28;20066;-77
2021/11/10 05:55:44;;;;;;;4.22;3.92;;;;;;;;;;4971833;28;20055;-76
2021/11/10 05:58:11;;;;;;;4.55;3.65;;;;;;;;;;4972557;28;20053;-77
2021/11/10 06:00:37;;;;;;;3.22;2.33;;;;;;;;;;4972548;28;20404;-77
2021/11/10 06:03:03;;;;;;;3.83;3.50;;;;;;;;;;4973105;28;20420;-77
2021/11/10 06:05:28;;;;;;;5.00;4.60;;;;;;;;;;4973577;28;20039;-77
2021/11/10 06:07:56;;;;;;;4.40;4.10;;;;;;;;;;4973157;28;20110;-77
2021/11/10 06:10:21;;;;;;;4.15;3.78;;;;;;;;;;4973807;28;20081;-77
2021/11/10 06:12:47;;;;;;;5.10;4.10;;;;;;;;;;4973879;28;20074;-77
2021/11/10 06:15:13;;;;;;;4.05;3.72;;;;;;;;;;4972724;28;20043;-77
2021/11/10 06:17:39;;;;;;;4.75;3.38;;;;;;;;;;4971483;28;20047;-78
2021/11/10 06:20:05;;;;;;;4.05;3.75;;;;;;;;;;4973592;28;20043;-77
2021/11/10 06:22:32;;;;;;;4.38;4.00;;;;;;;;;;4972560;28;20408;-77
2021/11/10 06:24:58;;;;;;;3.92;3.60;;;;;;;;;;4973359;28;20043;-77
2021/11/10 06:27:24;;;;;;;3.53;3.22;;;;;;;;;;4973287;28;20047;-78
2021/11/10 06:29:49;;;;;;;3.10;2.90;;;;;;;;;;4972916;28;20074;-78
2021/11/10 06:32:15;;;;;;;3.95;3.65;;;;;;;;;;4967335;28;20078;-77
2021/11/10 06:34:41;;;;;;;3.80;3.50;;;;;;;;;;4952453;29;20421;-78
2021/11/10 06:37:06;;;;;;;3.65;3.42;;;;;;;;;;4952761;29;20098;-78
2021/11/10 06:39:32;;;;;;;5.30;4.90;;;;;;;;;;4951900;29;20492;-78
2021/11/10 06:41:57;;;;;;;4.05;3.85;;;;;;;;;;4956584;28;20457;-77
2021/11/10 06:44:23;;;;;;;5.40;3.20;;;;;;;;;;4967748;28;20043;-77
2021/11/10 06:46:48;;;;;;;3.28;3.08;;;;;;;;;;4953846;29;20054;-77
2021/11/10 06:49:14;;;;;;;3.65;3.45;;;;;;;;;;4953521;29;20078;-77
2021/11/10 06:51:40;;;;;;;5.40;4.53;;;;;;;;;;4953295;29;20805;-77
2021/11/10 06:54:06;;;;;;;3.70;3.35;;;;;;;;;;4953054;28;20086;-76
2021/11/10 06:56:32;;;;;;;5.40;5.00;;;;;;;;;;4952179;29;20543;-77
2021/11/10 06:58:59;;;;;;;3.45;3.17;;;;;;;;;;4951649;29;20071;-75
2021/11/10 07:01:26;;;;;;;6.38;3.65;;;;;;;;;;4950826;29;20388;-75
2021/11/10 07:03:52;;;;;;;6.13;4.05;;;;;;;;;;4952060;29;20497;-76
2021/11/10 07:06:17;;;;;;;3.83;3.58;;;;;;;;;;4952449;29;20043;-75
2021/11/10 07:08:43;;;;;;;3.72;3.42;;;;;;;;;;4951466;29;20047;-76
2021/11/10 07:11:09;;;;;;;3.78;3.58;;;;;;;;;;4952188;29;20077;-75
2021/11/10 07:13:35;;;;;;;3.50;3.13;;;;;;;;;;4952275;29;20151;-75
2021/11/10 07:16:01;;;;;;;4.13;3.83;;;;;;;;;;4952088;29;20066;-76
2021/11/10 07:18:27;;;;;;;4.00;3.70;;;;;;;;;;4950804;29;20039;-76
2021/11/10 07:20:53;;;;;;;4.03;3.72;;;;;;;;;;4952390;29;20134;-76
2021/11/10 07:23:19;;;;;;;3.45;3.25;;;;;;;;;;4952510;29;20496;-75
2021/11/10 07:25:44;;;;;;;3.85;3.55;;;;;;;;;;4952854;29;20084;-74
2021/11/10 07:28:10;;;;;;;4.07;3.78;;;;;;;;;;4952629;29;20508;-75
2021/11/10 07:30:37;;;;;;;4.25;3.92;;;;;;;;;;4952575;29;20076;-76
2021/11/10 07:33:03;;;;;;;3.60;3.30;;;;;;;;;;4951255;29;20050;-76
2021/11/10 07:35:29;;;;;;;3.72;3.35;;;;;;;;;;4952694;29;20047;-77
2021/11/10 07:37:54;;;;;;;3.47;3.28;;;;;;;;;;4952404;29;20481;-75
2021/11/10 07:40:20;;;;;;;3.95;3.75;;;;;;;;;;4952570;29;20126;-76
2021/11/10 07:42:46;;;;;;;3.25;3.03;;;;;;;;;;4952574;29;20077;-75
2021/11/10 07:45:19;;;;;;;3.78;3.47;;;;;;;;;;4952631;29;20031;-76
2021/11/10 07:47:46;;;;;;;4.05;3.80;;;;;;;;;;4952777;29;20074;-76
2021/11/10 07:50:18;;;;;;;3.85;3.58;;;;;;;;;;4935230;29;20046;-77
2021/11/10 07:52:45;;;;;;;4.20;3.80;;;;;;;;;;4952780;29;20157;-76
2021/11/10 07:55:12;;;;;;;4.10;3.80;;;;;;;;;;4953295;29;20504;-75
2021/11/10 07:57:38;;;;;;;3.88;3.63;;;;;;;;;;4953333;29;20099;-77
2021/11/10 08:00:13;;;;;;;3.50;3.30;;;;;;;;;;4953452;29;20039;-76
2021/11/10 08:02:39;;;;;;;3.50;3.22;;;;;;;;;;4953436;29;20125;-77
2021/11/10 08:05:06;;;;;;;4.47;4.07;;;;;;;;;;4953528;28;20040;-76
2021/11/10 08:07:31;;;;;;;3.70;3.50;;;;;;;;;;4957191;29;20078;-77
2021/11/10 08:09:57;;;;;;;3.15;2.95;;;;;;;;;;4957331;29;20043;-76
2021/11/10 08:12:22;;;;;;;4.05;3.70;;;;;;;;;;4957270;29;20054;-77
2021/11/10 08:14:49;;;;;;;3.80;3.60;;;;;;;;;;4957539;29;20035;-75
2021/11/10 08:17:15;;;;;;;3.95;3.65;;;;;;;;;;4957107;29;20099;-75
2021/11/10 08:19:40;;;;;;;4.65;3.88;;;;;;;;;;4939833;29;20480;-76
2021/11/10 08:22:06;;;;;;;3.83;3.58;;;;;;;;;;4957067;29;20054;-75
2021/11/10 08:24:32;;;;;;;4.55;4.15;;;;;;;;;;4956994;29;20463;-75
2021/11/10 08:26:58;;;;;;;4.65;4.28;;;;;;;;;;4956829;29;20094;-76
2021/11/10 08:29:23;;;;;;;3.60;3.40;;;;;;;;;;4957097;29;20556;-76
2021/11/10 08:31:50;;;;;;;3.47;3.28;;;;;;;;;;4956972;29;20066;-76
2021/11/10 08:34:16;;;;;;;4.03;3.78;;;;;;;;;;4956887;29;20078;-75
2021/11/10 08:36:42;;;;;;;4.05;3.75;;;;;;;;;;4956683;29;20073;-76
2021/11/10 08:39:07;;;;;;;3.47;3.28;;;;;;;;;;4956903;29;20050;-76
2021/11/10 08:41:33;;;;;;;9.20;4.18;;;;;;;;;;4957409;29;20051;-75
2021/11/10 08:43:59;;;;;;;4.25;3.92;;;;;;;;;;4956676;29;20512;-76
2021/11/10 08:46:26;;;;;;;5.88;5.00;;;;;;;;;;4956674;29;20047;-76
2021/11/10 08:48:53;;;;;;;5.03;4.25;;;;;;;;;;4939335;29;20054;-75
2021/11/10 08:51:19;;;;;;;6.75;5.35;;;;;;;;;;4955611;29;20125;-76
2021/11/10 08:53:45;;;;;;;5.35;3.78;;;;;;;;;;4956732;29;20460;-76
2021/11/10 08:56:12;;;;;;;4.30;4.00;;;;;;;;;;4956786;29;20130;-76
2021/11/10 08:58:37;;;;;;;4.57;4.18;;;;;;;;;;4956403;29;20054;-75
2021/11/10 09:01:03;;;;;;;5.00;4.55;;;;;;;;;;4939114;29;20035;-76
2021/11/10 09:03:28;;;;;;;5.30;4.38;;;;;;;;;;4956570;29;20523;-76
2021/11/10 09:05:54;;;;;;;4.03;3.65;;;;;;;;;;4956162;29;20046;-77
2021/11/10 09:08:22;;;;;;;4.50;3.97;;;;;;;;;;4955043;29;20043;-76
2021/11/10 09:10:47;;;;;;;4.30;3.90;;;;;;;;;;4955104;29;20105;-75
2021/11/10 09:13:13;;;;;;;4.07;3.78;;;;;;;;;;4956314;29;20516;-76
2021/11/10 09:15:38;;;;;;;3.53;3.22;;;;;;;;;;4956229;29;20043;-75
2021/11/10 09:18:07;;;;;;;4.30;4.00;;;;;;;;;;4955267;28;20039;-75
2021/11/10 09:20:34;;;;;;;3.90;3.60;;;;;;;;;;4956118;29;20051;-75
2021/11/10 09:23:02;;;;;;;3.55;3.35;;;;;;;;;;4938722;29;20369;-75
2021/11/10 09:25:29;;;;;;;3.75;3.42;;;;;;;;;;4938684;29;20039;-76
2021/11/10 09:27:56;;;;;;;3.33;3.13;;;;;;;;;;4955842;29;20055;-75
2021/11/10 09:30:23;;;;;;;3.95;3.65;;;;;;;;;;4955958;29;20043;-76
2021/11/10 09:32:51;;;;;;;3.42;3.10;;;;;;;;;;4955794;29;20031;-76
2021/11/10 09:35:19;;;;;;;4.10;3.90;;;;;;;;;;4955934;29;20137;-76
2021/11/10 09:37:46;;;;;;;2.88;2.78;;;;;;;;;;4955967;29;20075;-76
2021/11/10 09:40:15;;;;;;;2.83;2.65;;;;;;;;;;4955688;29;20091;-76
2021/11/10 09:42:42;;;;;;;4.03;3.83;;;;;;;;;;4955747;29;20051;-75
2021/11/10 09:45:09;;;;;;;3.78;3.55;;;;;;;;;;4955561;29;20043;-76
2021/11/10 09:47:37;;;;;;;2.95;2.78;;;;;;;;;;4955232;29;20039;-76
2021/11/10 09:50:04;;;;;;;3.95;3.55;;;;;;;;;;4937883;29;20131;-78
2021/11/10 09:52:30;;;;;;;5.47;3.88;;;;;;;;;;4955312;29;20158;-75
2021/11/10 09:54:56;;;;;;;3.63;3.33;;;;;;;;;;4955300;29;20585;-76
2021/11/10 09:57:21;;;;;;;5.72;5.43;;;;;;;;;;4955601;29;20460;-76
2021/11/10 09:59:48;;;;;;;4.57;4.22;;;;;;;;;;4955601;29;20063;-75
2021/11/10 10:02:14;;;;;;;3.80;3.50;;;;;;;;;;4955342;29;20142;-77
2021/11/10 10:04:42;;;;;;;3.88;3.47;;;;;;;;;;4955041;29;20066;-75
2021/11/10 10:07:09;;;;;;;4.35;3.63;;;;;;;;;;4954837;29;20047;-76
2021/11/10 10:09:36;;;;;;;4.13;3.92;;;;;;;;;;4955021;29;20051;-76
2021/11/10 10:12:03;;;;;;;3.60;3.33;;;;;;;;;;4954797;29;20106;-75
2021/11/10 10:14:29;;;;;;;3.72;3.42;;;;;;;;;;4954774;29;20047;-75
2021/11/10 10:16:56;;;;;;;4.40;4.05;;;;;;;;;;4954824;29;20524;-75
2021/11/10 10:19:23;;;;;;;3.08;2.80;;;;;;;;;;4954466;29;20430;-77
2021/11/10 10:22:01;;;;;;;4.10;3.88;;;;;;;;;;4937448;29;20524;-76
2021/11/10 10:24:27;;;;;;;3.88;3.60;;;;;;;;;;4953446;29;20043;-76
2021/11/10 10:26:52;;;;;;;4.00;3.78;;;;;;;;;;4954776;29;20456;-77
2021/11/10 10:29:18;;;;;;;3.45;3.25;;;;;;;;;;4953703;28;20062;-78
2021/11/10 10:31:45;;;;;;;3.47;2.88;;;;;;;;;;4954542;29;20070;-76
2021/11/10 10:34:13;;;;;;;3.55;3.35;;;;;;;;;;4954711;29;20051;-77
2021/11/10 10:36:42;;;;;;;3.38;3.17;;;;;;;;;;4954635;29;20417;-76
2021/11/10 10:39:25;;;;;;;3.75;3.55;;;;;;;;;;4954533;29;20039;-76
2021/11/10 10:41:52;;;;;;;3.80;3.50;;;;;;;;;;4954715;29;20047;-79
2021/11/10 10:44:20;;;;;;;4.80;4.50;;;;;;;;;;4954570;29;20508;-78
2021/11/10 10:46:54;;;;;;;4.10;3.80;;;;;;;;;;4954516;29;20079;-76
2021/11/10 10:49:30;;;;;;;4.07;3.88;;;;;;;;;;4954614;29;20043;-75
2021/11/10 10:52:16;;;;;;;3.05;2.00;;;;;;;;;;4953171;29;20456;-75
2021/11/10 10:54:43;;;;;;;3.83;3.63;;;;;;;;;;4952776;29;20039;-75
2021/11/10 10:57:10;;;;;;;3.08;2.97;;;;;;;;;;4954405;29;20408;-77
2021/11/10 10:59:36;;;;;;;3.80;3.47;;;;;;;;;;4954138;29;20050;-77
2021/11/10 11:02:04;;;;;;;3.30;3.03;;;;;;;;;;4954218;29;20035;-76
2021/11/10 11:04:31;;;;;;;3.83;3.53;;;;;;;;;;4953985;29;20049;-76
2021/11/10 11:07:11;;;;;;;4.13;3.83;;;;;;;;;;4953733;29;20130;-75
2021/11/10 11:09:48;;;;;;;3.53;3.22;;;;;;;;;;4954518;29;20058;-76
2021/11/10 11:12:29;;;;;;;2.83;2.72;;;;;;;;;;4954085;29;20038;-76
2021/11/10 11:15:09;;;;;;;3.10;2.92;;;;;;;;;;4952490;29;20089;-77
2021/11/10 11:17:37;;;;;;;3.05;2.85;;;;;;;;;;4953770;29;20134;-77
2021/11/10 11:20:16;;;;;;;3.22;3.03;;;;;;;;;;4953671;29;20040;-77
2021/11/10 11:22:41;;;;;;;3.22;3.03;;;;;;;;;;4954230;29;20051;-77
2021/11/10 11:25:16;;;;;;;4.47;3.05;;;;;;;;;;4953870;29;20518;-77
2021/11/10 11:28:04;;;;;;;3.17;3.03;;;;;;;;;;4936636;29;20043;-76
2021/11/10 11:30:37;;;;;;;5.90;3.65;;;;;;;;;;4953342;29;20381;-77
2021/11/10 11:33:15;;;;;;;3.38;3.15;;;;;;;;;;4953749;29;20050;-77
2021/11/10 11:36:02;;;;;;;3.38;3.15;;;;;;;;;;4953814;29;20043;-76
2021/11/10 11:38:32;;;;;;;3.45;3.22;;;;;;;;;;4953325;29;20054;-76
2021/11/10 11:41:00;;;;;;;2.58;2.38;;;;;;;;;;4936332;29;20134;-76
2021/11/10 11:43:28;;;;;;;3.05;2.95;;;;;;;;;;4953741;29;20055;-76
2021/11/10 11:45:56;;;;;;;4.28;3.88;;;;;;;;;;4953499;29;20081;-77
2021/11/10 11:48:24;;;;;;;3.35;3.15;;;;;;;;;;4953299;29;20043;-76
2021/11/10 11:50:51;;;;;;;3.92;3.72;;;;;;;;;;4953384;29;20098;-76
2021/11/10 11:53:19;;;;;;;3.45;3.25;;;;;;;;;;4953526;29;20121;-75
2021/11/10 11:55:59;;;;;;;3.20;3.00;;;;;;;;;;4953514;29;20039;-77
2021/11/10 11:58:38;;;;;;;4.70;3.35;;;;;;;;;;4953401;29;20058;-75
2021/11/10 12:01:12;;;;;;;3.10;2.95;;;;;;;;;;4953350;29;20035;-75
2021/11/10 12:03:43;;;;;;;3.25;3.05;;;;;;;;;;4953467;29;20518;-75
2021/11/10 12:06:09;;;;;;;4.38;4.07;;;;;;;;;;4936047;29;20413;-76
2021/11/10 12:08:41;;;;;;;5.07;4.50;;;;;;;;;;4953357;29;20051;-76
2021/11/10 12:11:16;;;;;;;4.53;4.20;;;;;;;;;;4953104;29;20504;-76
2021/11/10 12:14:11;;;;;;;5.75;3.97;;;;;;;;;;4953221;29;20516;-76
2021/11/10 12:17:01;;;;;;;4.43;4.07;;;;;;;;;;4953385;29;20043;-76
2021/11/10 12:19:39;;;;;;;3.63;3.42;;;;;;;;;;4953218;29;20049;-76
2021/11/10 12:22:10;;;;;;;4.35;3.92;;;;;;;;;;4935994;29;20041;-76
2021/11/10 12:24:39;;;;;;;6.68;6.18;;;;;;;;;;4953085;29;20448;-75
2021/11/10 12:27:16;;;;;;;3.85;3.55;;;;;;;;;;4952998;29;20054;-76
2021/11/10 12:29:46;;;;;;;5.13;4.13;;;;;;;;;;4953171;29;20083;-76
2021/11/10 12:32:13;;;;;;;3.90;3.55;;;;;;;;;;4953000;29;20039;-75
2021/11/10 12:34:39;;;;;;;3.50;3.22;;;;;;;;;;4952980;29;20043;-75
2021/11/10 12:37:19;;;;;;;4.05;3.75;;;;;;;;;;4951431;29;20039;-75
2021/11/10 12:39:45;;;;;;;3.25;3.05;;;;;;;;;;4952667;29;20050;-76
2021/11/10 12:42:13;;;;;;;2.50;2.30;;;;;;;;;;4952421;29;20416;-76
2021/11/10 12:44:40;;;;;;;3.38;3.17;;;;;;;;;;4952497;29;20039;-77
2021/11/10 12:47:07;;;;;;;3.28;2.92;;;;;;;;;;4952719;29;20039;-77
2021/11/10 12:49:33;;;;;;;3.63;3.40;;;;;;;;;;4952765;29;20633;-75
2021/11/10 12:52:19;;;;;;;3.88;3.58;;;;;;;;;;4952796;28;20138;-77
2021/11/10 12:55:08;;;;;;;3.30;3.13;;;;;;;;;;4956812;29;20043;-76
2021/11/10 12:57:34;;;;;;;4.90;2.00;;;;;;;;;;4956039;29;20062;-76
2021/11/10 13:00:00;;;;;;;2.80;2.70;;;;;;;;;;4956294;29;20039;-77
2021/11/10 13:02:26;;;;;;;2.08;1.98;;;;;;;;;;4956315;29;20043;-76
2021/11/10 13:04:57;;;;;;;3.05;2.85;;;;;;;;;;4956577;29;20421;-75
2021/11/10 13:07:31;;;;;;;2.90;2.70;;;;;;;;;;4956159;29;20038;-76
2021/11/10 13:10:12;;;;;;;3.15;2.90;;;;;;;;;;4938861;29;20047;-76
2021/11/10 13:12:40;;;;;;;3.53;3.30;;;;;;;;;;4956409;29;20187;-76
2021/11/10 13:15:07;;;;;;;3.00;2.80;;;;;;;;;;4956121;29;20043;-77
2021/11/10 13:17:34;;;;;;;3.58;3.30;;;;;;;;;;4956034;29;20063;-77
2021/11/10 13:20:06;;;;;;;3.35;3.05;;;;;;;;;;4955803;29;20041;-77
2021/11/10 13:22:40;;;;;;;3.25;3.15;;;;;;;;;;4955396;29;20523;-77
2021/11/10 13:25:22;;;;;;;2.97;2.78;;;;;;;;;;4938479;29;20043;-77
2021/11/10 13:27:49;;;;;;;2.88;2.78;;;;;;;;;;4955560;29;20035;-77
2021/11/10 13:30:29;;;;;;;2.90;2.70;;;;;;;;;;4955015;29;20050;-78
2021/11/10 13:32:57;;;;;;;3.40;3.05;;;;;;;;;;4955045;29;20126;-76
2021/11/10 13:35:28;;;;;;;3.45;3.15;;;;;;;;;;4955277;29;20044;-78
2021/11/10 13:37:53;;;;;;;3.13;2.92;;;;;;;;;;4953527;29;20078;-78
2021/11/10 13:40:25;;;;;;;3.20;2.72;;;;;;;;;;4953710;29;20508;-72
2021/11/10 13:42:55;;;;;;;3.30;3.10;;;;;;;;;;4954842;29;20066;-72
2021/11/10 13:45:24;;;;;;;3.70;3.50;;;;;;;;;;4954965;29;20035;-74
2021/11/10 13:48:03;;;;;;;3.05;2.85;;;;;;;;;;4953653;29;20051;-74
2021/11/10 13:50:42;;;;;;;3.78;3.58;;;;;;;;;;4953201;29;20042;-73
2021/11/10 13:53:11;;;;;;;3.10;2.95;;;;;;;;;;4953245;29;20066;-71
2021/11/10 13:55:41;;;;;;;3.63;3.05;;;;;;;;;;4954446;29;20047;-73
2021/11/10 13:58:10;;;;;;;3.78;2.72;;;;;;;;;;4954725;29;20472;-73
2021/11/10 14:00:37;;;;;;;3.83;3.63;;;;;;;;;;4953320;29;20039;-76
2021/11/10 14:03:02;;;;;;;3.92;3.50;;;;;;;;;;4954361;28;20039;-76
2021/11/10 14:05:29;;;;;;;3.47;3.20;;;;;;;;;;4954370;29;20377;-76
2021/11/10 14:07:55;;;;;;;4.82;3.70;;;;;;;;;;4954482;29;20053;-76
2021/11/10 14:10:36;;;;;;;3.28;3.08;;;;;;;;;;4954081;29;20130;-76
2021/11/10 14:13:03;;;;;;;3.13;2.88;;;;;;;;;;4937366;29;20382;-76
2021/11/10 14:15:33;;;;;;;3.00;2.80;;;;;;;;;;4954544;29;20065;-76
2021/11/10 14:18:06;;;;;;;2.72;2.55;;;;;;;;;;4937185;29;20098;-75
2021/11/10 14:20:38;;;;;;;3.15;2.95;;;;;;;;;;4954219;29;20134;-74
2021/11/10 14:23:16;;;;;;;2.00;1.90;;;;;;;;;;4954327;29;20159;-77
2021/11/10 14:25:44;;;;;;;2.70;2.50;;;;;;;;;;4954188;29;20416;-74
2021/11/10 14:28:15;;;;;;;3.63;3.33;;;;;;;;;;4952704;29;20047;-75
2021/11/10 14:30:53;;;;;;;4.35;2.38;;;;;;;;;;4953938;29;20404;-75
2021/11/10 14:33:22;;;;;;;3.45;3.15;;;;;;;;;;4936947;29;20049;-76
2021/11/10 14:35:56;;;;;;;4.03;3.72;;;;;;;;;;4954319;29;20122;-78
2021/11/10 14:38:27;;;;;;;3.45;3.20;;;;;;;;;;4954023;29;20054;-76
2021/11/10 14:41:07;;;;;;;3.45;3.25;;;;;;;;;;4936919;29;20050;-75
2021/11/10 14:43:38;;;;;;;3.72;3.45;;;;;;;;;;4953994;29;20512;-76
2021/11/10 14:46:15;;;;;;;3.70;3.45;;;;;;;;;;4951964;29;20047;-76
2021/11/10 14:48:45;;;;;;;3.35;3.15;;;;;;;;;;4951752;29;20054;-76
2021/11/10 14:51:11;;;;;;;3.90;3.55;;;;;;;;;;4953000;29;20039;-75